Time;durP1;ratioP1;P1;durP2;ratioP2;P2;SDS_P1;SDS_P2;PMS_P1;PMS_P2;Temp;Humidity;BMP_temperature;BMP_pressure;BME280_temperature;BME280_humidity;BME280_pressure;Samples;Min_cycle;Max_cycle;Signal;HPM_P1;HPM_P2
2021/12/12 00:01:41;;;;;;;12.50;8.07;;;;;;;1.34;100.00;95964.66;5012117;28;20203;-59
2021/12/12 00:04:14;;;;;;;12.77;8.70;;;;;;;1.34;100.00;95964.66;5012078;28;20191;-58
2021/12/12 00:06:53;;;;;;;11.30;7.70;;;;;;;1.35;100.00;95960.84;5011913;28;20206;-61
2021/12/12 00:09:34;;;;;;;10.93;7.57;;;;;;;1.35;100.00;95974.28;5012016;28;20197;-70
2021/12/12 00:12:07;;;;;;;10.50;7.33;;;;;;;1.35;100.00;95979.69;5011907;28;20197;-69
2021/12/12 00:14:35;;;;;;;16.63;11.53;;;;;;;1.37;100.00;95985.53;5011872;28;20279;-69
2021/12/12 00:17:02;;;;;;;14.67;9.00;;;;;;;1.35;100.00;95987.75;5011740;28;20187;-59
2021/12/12 00:19:29;;;;;;;12.47;8.67;;;;;;;1.36;100.00;95992.03;5011952;28;20186;-58
2021/12/12 00:21:58;;;;;;;10.20;8.13;;;;;;;1.35;100.00;95997.75;5011769;28;20370;-59
2021/12/12 00:24:24;;;;;;;11.00;8.43;;;;;;;1.35;100.00;96001.19;5011627;28;20214;-58
2021/12/12 00:26:52;;;;;;;10.17;7.90;;;;;;;1.35;100.00;95998.50;5011834;28;20210;-46
2021/12/12 00:29:20;;;;;;;10.63;7.23;;;;;;;1.34;100.00;96002.31;5012009;28;20186;-49
2021/12/12 00:31:47;;;;;;;11.67;7.53;;;;;;;1.34;100.00;96002.31;5011928;28;20404;-49
2021/12/12 00:34:14;;;;;;;10.47;7.57;;;;;;;1.33;100.00;96005.34;5011957;28;20217;-52
2021/12/12 00:36:41;;;;;;;10.43;7.60;;;;;;;1.33;100.00;96006.13;5011818;28;20190;-48
2021/12/12 00:39:19;;;;;;;9.73;6.87;;;;;;;1.33;100.00;96006.13;5011966;28;20197;-46
2021/12/12 00:41:53;;;;;;;8.83;6.47;;;;;;;1.34;100.00;96009.63;5011584;28;20247;-46
2021/12/12 00:44:19;;;;;;;10.40;7.97;;;;;;;1.33;100.00;96006.13;5011533;28;20255;-71
2021/12/12 00:46:46;;;;;;;13.23;9.43;;;;;;;1.34;100.00;96010.38;5011347;28;20209;-70
2021/12/12 00:49:13;;;;;;;11.67;8.00;;;;;;;1.36;100.00;96012.75;5011879;28;20190;-69
2021/12/12 00:51:41;;;;;;;10.43;7.33;;;;;;;1.37;100.00;96001.66;5011313;28;20187;-70
2021/12/12 00:54:08;;;;;;;12.20;8.47;;;;;;;1.39;100.00;96004.81;5011406;28;20176;-70
2021/12/12 00:56:34;;;;;;;17.90;10.97;;;;;;;1.40;100.00;95995.63;5012526;28;20215;-68
2021/12/12 00:59:00;;;;;;;17.37;11.10;;;;;;;1.40;100.00;96005.59;5015318;28;20194;-70
2021/12/12 01:01:35;;;;;;;18.63;11.93;;;;;;;1.38;100.00;96014.00;5015188;28;20298;-50
2021/12/12 01:04:05;;;;;;;19.23;13.17;;;;;;;1.36;100.00;96016.25;5014885;28;20199;-47
2021/12/12 01:06:31;;;;;;;20.03;13.87;;;;;;;1.39;100.00;96015.59;5015072;28;20206;-46
2021/12/12 01:08:59;;;;;;;20.87;14.03;;;;;;;1.40;100.00;96013.66;5015429;28;20192;-47
2021/12/12 01:11:29;;;;;;;20.33;13.23;;;;;;;1.44;100.00;96012.69;5015028;28;20213;-49
2021/12/12 01:13:55;;;;;;;20.60;12.93;;;;;;;1.45;100.00;96016.94;5014866;28;20222;-46
2021/12/12 01:16:36;;;;;;;18.73;12.80;;;;;;;1.45;100.00;96019.63;5014464;28;20252;-46
2021/12/12 01:19:14;;;;;;;17.87;11.77;;;;;;;1.44;100.00;96018.06;5014961;28;20213;-57
2021/12/12 01:21:45;;;;;;;16.50;10.67;;;;;;;1.43;100.00;96026.47;5014599;28;20190;-59
2021/12/12 01:24:19;;;;;;;15.63;10.57;;;;;;;1.43;100.00;96031.84;5014622;28;20493;-60
2021/12/12 01:26:46;;;;;;;13.10;9.03;;;;;;;1.43;100.00;96038.03;5014778;28;20219;-60
2021/12/12 01:29:13;;;;;;;13.80;9.10;;;;;;;1.43;100.00;96038.03;5014672;28;20190;-60
2021/12/12 01:31:46;;;;;;;10.97;7.73;;;;;;;1.44;100.00;96031.53;5014655;28;20200;-59
2021/12/12 01:34:14;;;;;;;13.03;7.60;;;;;;;1.43;100.00;96048.78;5014438;28;20220;-59
2021/12/12 01:39:27;;;;;;;11.87;8.27;;;;;;;1.48;100.00;96045.09;5015759;28;20204;-64
2021/12/12 01:41:57;;;;;;;10.07;7.53;;;;;;;1.51;100.00;96052.50;5014725;28;20201;-58
2021/12/12 01:44:32;;;;;;;10.30;7.60;;;;;;;1.55;100.00;96045.34;5014269;28;20205;-59
2021/12/12 01:47:20;;;;;;;11.73;7.73;;;;;;;1.54;100.00;96044.56;5014430;28;20647;-58
2021/12/12 01:49:48;;;;;;;9.90;7.17;;;;;;;1.56;100.00;96058.47;5014037;28;20240;-56
2021/12/12 01:52:17;;;;;;;10.97;8.20;;;;;;;1.59;100.00;96057.81;5014438;28;20607;-58
2021/12/12 01:54:46;;;;;;;11.90;7.60;;;;;;;1.60;100.00;96054.00;5013824;28;20196;-48
2021/12/12 01:57:20;;;;;;;11.07;7.80;;;;;;;1.62;100.00;96048.28;5014130;28;20686;-56
2021/12/12 01:59:49;;;;;;;10.83;8.20;;;;;;;1.63;100.00;96049.84;5013997;28;20202;-60
2021/12/12 02:02:18;;;;;;;11.77;8.33;;;;;;;1.63;100.00;96053.34;5014069;28;20249;-60
2021/12/12 02:04:50;;;;;;;11.93;8.30;;;;;;;1.65;100.00;96042.25;5013720;28;20340;-61
2021/12/12 02:07:20;;;;;;;12.00;8.40;;;;;;;1.68;100.00;96045.06;5013962;28;20218;-61
2021/12/12 02:09:46;;;;;;;11.23;8.00;;;;;;;1.68;100.00;96055.81;5012993;28;20191;-62
2021/12/12 02:12:14;;;;;;;11.70;7.97;;;;;;;1.69;100.00;96052.03;5013727;28;20549;-61
2021/12/12 02:14:42;;;;;;;12.57;8.23;;;;;;;1.72;100.00;96054.06;5013704;28;20192;-50
2021/12/12 02:17:16;;;;;;;11.53;8.10;;;;;;;1.75;100.00;96053.38;5013701;28;20192;-61
2021/12/12 02:36:12;;;;;;;13.33;8.63;;;;;;;1.80;100.00;96055.91;5014705;28;20257;-68
2021/12/12 02:38:39;;;;;;;12.23;8.30;;;;;;;1.78;100.00;96065.44;5013216;28;20195;-64
2021/12/12 02:41:09;;;;;;;11.73;8.27;;;;;;;1.81;100.00;96062.84;5013176;28;20194;-65
2021/12/12 02:43:40;;;;;;;10.83;8.23;;;;;;;1.83;100.00;96062.53;5013047;28;20192;-65
2021/12/12 02:46:06;;;;;;;11.97;8.47;;;;;;;1.84;100.00;96059.50;5012929;28;20216;-65
2021/12/12 02:48:37;;;;;;;13.27;8.93;;;;;;;1.87;100.00;96058.03;5013048;28;20190;-65
2021/12/12 02:51:08;;;;;;;13.60;8.43;;;;;;;1.88;100.00;96065.00;5013307;28;20203;-61
2021/12/12 02:53:41;;;;;;;13.00;8.67;;;;;;;1.89;100.00;96072.75;5013060;28;20269;-67
2021/12/12 02:56:14;;;;;;;12.67;8.73;;;;;;;1.90;100.00;96074.31;5012904;28;20189;-67
2021/12/12 02:58:41;;;;;;;12.07;8.20;;;;;;;1.90;100.00;96074.31;5012823;28;20246;-67
2021/12/12 03:01:16;;;;;;;11.27;8.00;;;;;;;1.92;100.00;96071.28;5012695;28;20187;-66
2021/12/12 03:03:43;;;;;;;10.60;7.90;;;;;;;1.88;100.00;96076.56;5012945;28;20193;-67
2021/12/12 03:06:14;;;;;;;12.20;8.57;;;;;;;1.89;100.00;96066.59;5012707;28;20474;-68
2021/12/12 03:08:42;;;;;;;12.87;8.60;;;;;;;1.90;100.00;96073.53;5012558;28;20277;-60
2021/12/12 03:11:08;;;;;;;11.40;8.07;;;;;;;1.90;100.00;96073.53;5012654;28;20673;-58
2021/12/12 03:13:34;;;;;;;10.47;8.10;;;;;;;1.92;100.00;96077.47;5012723;28;20339;-58
2021/12/12 03:15:59;;;;;;;11.47;8.73;;;;;;;1.92;100.00;96087.44;5012620;28;20290;-58
2021/12/12 03:18:32;;;;;;;11.07;8.23;;;;;;;1.90;100.00;96084.31;5012223;28;20198;-57
2021/12/12 03:21:02;;;;;;;12.13;8.20;;;;;;;1.90;100.00;96081.63;5012256;28;20202;-56
2021/12/12 03:23:34;;;;;;;11.10;8.07;;;;;;;1.90;100.00;96085.06;5012332;28;20194;-58
2021/12/12 03:26:04;;;;;;;12.50;8.43;;;;;;;1.94;100.00;96077.94;5012352;28;20260;-56
2021/12/12 03:28:33;;;;;;;12.43;8.37;;;;;;;2.00;100.00;96078.53;5012391;28;20264;-66
2021/12/12 03:31:02;;;;;;;14.07;7.97;;;;;;;1.96;100.00;96078.38;5012444;28;20193;-47
2021/12/12 03:33:30;;;;;;;10.50;7.87;;;;;;;1.96;100.00;96078.38;5012004;28;20207;-50
2021/12/12 03:35:58;;;;;;;11.07;8.23;;;;;;;1.97;100.00;96085.34;5012077;28;20195;-51
2021/12/12 03:38:27;;;;;;;12.67;8.00;;;;;;;1.96;100.00;96091.03;5012249;28;20226;-55
2021/12/12 03:40:56;;;;;;;10.10;7.93;;;;;;;1.99;100.00;96083.13;5012539;28;20241;-54
2021/12/12 03:43:21;;;;;;;11.73;7.63;;;;;;;2.02;100.00;96079.75;5012623;28;20187;-50
2021/12/12 03:45:47;;;;;;;11.63;8.10;;;;;;;2.02;100.00;96079.75;5012097;28;20301;-56
2021/12/12 03:48:24;;;;;;;13.03;8.27;;;;;;;2.02;100.00;96087.03;5012329;28;20198;-47
2021/12/12 03:50:52;;;;;;;11.13;8.10;;;;;;;2.01;100.00;96080.09;5011946;28;20193;-48
2021/12/12 03:53:18;;;;;;;14.97;7.93;;;;;;;1.98;100.00;96092.31;5012036;28;20238;-45
2021/12/12 03:55:45;;;;;;;10.10;7.83;;;;;;;1.98;100.00;96086.13;5011750;28;20191;-45
2021/12/12 03:58:11;;;;;;;11.10;7.90;;;;;;;2.00;100.00;96089.28;5012050;28;20186;-48
2021/12/12 04:00:45;;;;;;;8.90;7.10;;;;;;;2.00;100.00;96084.69;5011786;28;20193;-45
2021/12/12 04:03:12;;;;;;;10.23;7.73;;;;;;;1.99;100.00;96088.50;5011926;28;20189;-60
2021/12/12 04:05:38;;;;;;;11.60;8.00;;;;;;;2.01;100.00;96094.31;5011862;28;20264;-50
2021/12/12 04:08:04;;;;;;;11.13;7.30;;;;;;;2.03;100.00;96086.72;5011723;28;20187;-60
2021/12/12 04:10:30;;;;;;;10.53;8.00;;;;;;;2.03;100.00;96089.41;5011917;28;20213;-59
2021/12/12 04:12:58;;;;;;;11.57;7.63;;;;;;;2.01;100.00;96091.63;5011842;28;20187;-59
2021/12/12 04:15:24;;;;;;;10.20;7.90;;;;;;;2.02;100.00;96095.91;5011575;28;20659;-60
2021/12/12 04:17:50;;;;;;;10.63;7.90;;;;;;;2.01;100.00;96102.41;5011679;28;20201;-59
2021/12/12 04:20:30;;;;;;;12.17;7.83;;;;;;;2.00;100.00;96106.22;5011589;28;20349;-60
2021/12/12 04:22:55;;;;;;;10.20;7.57;;;;;;;2.01;100.00;96102.41;5011423;28;20190;-47
2021/12/12 04:25:22;;;;;;;12.17;8.17;;;;;;;2.01;100.00;96109.72;5011761;28;20236;-60
2021/12/12 04:27:49;;;;;;;10.43;7.40;;;;;;;2.02;100.00;96106.69;5011375;28;20206;-60
2021/12/12 04:30:15;;;;;;;12.77;7.30;;;;;;;2.03;100.00;96105.56;5011773;28;20199;-61
2021/12/12 04:32:42;;;;;;;10.27;7.73;;;;;;;2.04;100.00;96115.22;5014660;28;20242;-60
2021/12/12 04:35:13;;;;;;;10.73;7.43;;;;;;;2.01;100.00;96115.88;5015722;28;20189;-59
2021/12/12 04:37:39;;;;;;;13.27;7.30;;;;;;;2.02;100.00;96117.47;5015698;28;20187;-59
2021/12/12 04:40:09;;;;;;;11.40;7.37;;;;;;;2.03;100.00;96137.06;5015470;28;20249;-64
2021/12/12 04:42:37;;;;;;;10.03;7.13;;;;;;;2.04;100.00;96136.75;5015571;28;20199;-51
2021/12/12 04:45:41;;;;;;;9.03;6.93;;;;;;;2.03;100.00;96143.25;5015206;28;20218;-50
2021/12/12 04:51:25;;;;;;;10.83;7.33;;;;;;;2.01;100.00;96133.94;5016431;28;20612;-51
2021/12/12 04:54:19;;;;;;;10.20;7.57;;;;;;;2.04;100.00;96144.06;5015362;28;20651;-53
2021/12/12 04:57:09;;;;;;;10.60;7.17;;;;;;;2.05;100.00;96154.50;5015101;28;20197;-50
2021/12/12 04:59:42;;;;;;;9.00;7.10;;;;;;;2.01;100.00;96155.50;5015512;28;20192;-45
2021/12/12 05:02:19;;;;;;;9.53;7.60;;;;;;;2.04;100.00;96152.91;5015332;28;20190;-51
2021/12/12 05:04:54;;;;;;;11.37;7.67;;;;;;;2.07;100.00;96154.94;5015081;28;20560;-48
2021/12/12 05:07:37;;;;;;;10.47;7.60;;;;;;;2.08;100.00;96161.91;5015148;28;20269;-52
2021/12/12 05:10:11;;;;;;;12.23;7.40;;;;;;;2.10;100.00;96166.97;5014907;28;20265;-52
2021/12/12 05:13:02;;;;;;;12.17;7.80;;;;;;;2.08;100.00;96167.28;5014803;28;20182;-50
2021/12/12 05:15:36;;;;;;;10.47;7.20;;;;;;;2.09;100.00;96168.88;5014810;28;20187;-48
2021/12/12 05:18:08;;;;;;;23.50;13.90;;;;;;;2.08;100.00;96178.06;5015059;28;20182;-46
2021/12/12 05:20:41;;;;;;;12.23;8.30;;;;;;;2.07;100.00;96175.69;5014863;28;20287;-70
2021/12/12 05:23:11;;;;;;;11.03;7.53;;;;;;;2.07;100.00;96181.09;5014832;28;20233;-70
2021/12/12 05:25:50;;;;;;;9.60;6.93;;;;;;;2.05;100.00;96184.13;5014582;28;20210;-69
2021/12/12 05:28:25;;;;;;;9.33;7.00;;;;;;;2.04;100.00;96182.53;5014728;28;20278;-69
2021/12/12 05:30:51;;;;;;;10.10;6.90;;;;;;;2.07;100.00;96184.56;5014983;28;20447;-67
2021/12/12 05:33:17;;;;;;;9.53;7.07;;;;;;;2.07;100.00;96187.25;5014669;28;20217;-69
2021/12/12 05:35:44;;;;;;;9.47;6.93;;;;;;;2.07;100.00;96203.44;5014311;28;20210;-59
2021/12/12 05:38:10;;;;;;;10.80;6.83;;;;;;;2.10;100.00;96192.00;5014737;28;20230;-55
2021/12/12 05:40:38;;;;;;;10.00;7.10;;;;;;;2.05;100.00;96194.09;5014330;28;20191;-58
2021/12/12 05:43:06;;;;;;;9.27;7.07;;;;;;;2.02;100.00;96187.47;5014039;28;20245;-55
2021/12/12 05:45:34;;;;;;;9.67;6.70;;;;;;;2.03;100.00;96185.56;5014418;28;20211;-55
2021/12/12 05:48:01;;;;;;;10.23;7.30;;;;;;;2.05;100.00;96189.50;5014281;28;20193;-57
2021/12/12 05:50:27;;;;;;;10.40;6.90;;;;;;;2.03;100.00;96186.34;5014122;28;20201;-56
2021/12/12 05:52:54;;;;;;;10.00;6.50;;;;;;;2.04;100.00;96182.53;5014356;28;20205;-55
2021/12/12 05:55:22;;;;;;;9.27;7.00;;;;;;;2.03;100.00;96190.94;5014048;28;20277;-68
2021/12/12 05:57:54;;;;;;;10.93;7.10;;;;;;;2.02;100.00;96190.16;5013839;28;20668;-49
2021/12/12 06:00:23;;;;;;;10.80;7.10;;;;;;;2.06;100.00;96204.56;5014229;28;20195;-47
2021/12/12 06:02:49;;;;;;;10.93;7.53;;;;;;;2.10;100.00;96194.69;5013992;28;20187;-48
2021/12/12 06:05:14;;;;;;;9.90;6.63;;;;;;;2.09;100.00;96217.38;5013796;28;20214;-53
2021/12/12 06:07:41;;;;;;;9.10;6.50;;;;;;;2.09;100.00;96217.38;5013929;28;20192;-50
2021/12/12 06:10:10;;;;;;;9.67;6.80;;;;;;;2.12;100.00;96215.91;5013490;28;20194;-50
2021/12/12 06:12:37;;;;;;;8.77;6.13;;;;;;;2.12;100.00;96208.59;5013820;28;20190;-69
2021/12/12 06:15:07;;;;;;;7.50;5.80;;;;;;;2.11;100.00;96220.50;5013906;28;20215;-60
2021/12/12 06:17:34;;;;;;;12.00;6.70;;;;;;;2.13;100.00;96215.59;5013301;28;20183;-60
2021/12/12 06:20:01;;;;;;;8.27;6.07;;;;;;;2.14;100.00;96225.22;5013550;28;20198;-60
2021/12/12 06:22:27;;;;;;;9.50;6.50;;;;;;;2.15;100.00;96226.03;5013293;28;20307;-60
2021/12/12 06:24:53;;;;;;;8.17;6.17;;;;;;;2.12;100.00;96227.44;5013614;28;20183;-61
2021/12/12 06:27:20;;;;;;;8.27;5.93;;;;;;;2.10;100.00;96228.91;5013437;28;20702;-59
2021/12/12 06:29:49;;;;;;;9.83;6.60;;;;;;;2.11;100.00;96231.28;5013615;28;20193;-63
2021/12/12 06:32:15;;;;;;;9.43;6.70;;;;;;;2.09;100.00;96232.72;5013543;28;20194;-63
2021/12/12 06:34:42;;;;;;;8.50;6.00;;;;;;;2.09;100.00;96230.03;5013383;28;20252;-67
2021/12/12 06:37:08;;;;;;;8.43;5.83;;;;;;;2.09;100.00;96236.22;5013410;28;20533;-63
2021/12/12 06:39:33;;;;;;;7.60;6.00;;;;;;;2.09;100.00;96238.91;5013473;28;20191;-64
2021/12/12 06:42:00;;;;;;;12.73;8.93;;;;;;;2.10;100.00;96245.88;5013295;28;20197;-66
2021/12/12 06:44:25;;;;;;;12.77;8.70;;;;;;;2.14;100.00;96241.41;5013155;28;20667;-63
2021/12/12 06:46:53;;;;;;;10.23;7.13;;;;;;;2.15;100.00;96247.59;5013246;28;20206;-65
2021/12/12 06:49:20;;;;;;;15.90;10.90;;;;;;;2.19;100.00;96249.28;5013249;28;20241;-46
2021/12/12 06:51:49;;;;;;;10.73;7.87;;;;;;;2.18;100.00;96247.69;5012960;28;20182;-56
2021/12/12 06:54:21;;;;;;;8.17;6.40;;;;;;;2.18;100.00;96241.50;5012125;28;20190;-59
2021/12/12 06:56:53;;;;;;;8.47;6.13;;;;;;;2.19;100.00;96243.88;5013046;28;20195;-59
2021/12/12 06:59:21;;;;;;;8.33;6.13;;;;;;;2.19;100.00;96245.81;5014120;28;20193;-58
2021/12/12 07:01:48;;;;;;;7.33;5.50;;;;;;;2.22;100.00;96247.84;5012704;28;20667;-57
2021/12/12 07:04:18;;;;;;;7.20;5.40;;;;;;;2.21;100.00;96265.91;5012541;28;20187;-58
2021/12/12 07:06:45;;;;;;;7.63;5.73;;;;;;;2.21;100.00;96257.81;5012679;28;20218;-62
2021/12/12 07:09:11;;;;;;;7.93;5.90;;;;;;;2.26;100.00;96270.31;5013149;28;20183;-50
2021/12/12 07:11:38;;;;;;;6.50;5.50;;;;;;;2.19;100.00;96265.44;5012587;28;20228;-60
2021/12/12 07:14:06;;;;;;;8.77;5.50;;;;;;;2.19;100.00;96270.06;5012478;28;20561;-59
2021/12/12 07:16:31;;;;;;;7.80;5.47;;;;;;;2.23;100.00;96265.59;5012354;28;20249;-60
2021/12/12 07:18:57;;;;;;;7.63;5.30;;;;;;;2.25;100.00;96269.53;5012586;28;20190;-59
2021/12/12 07:21:25;;;;;;;6.73;5.03;;;;;;;2.26;100.00;96265.69;5012453;28;20197;-59
2021/12/12 07:23:51;;;;;;;7.90;4.90;;;;;;;2.25;100.00;96258.75;5012264;28;20191;-60
2021/12/12 07:26:21;;;;;;;6.80;4.73;;;;;;;2.27;100.00;96275.38;5012341;28;20214;-61
2021/12/12 07:28:48;;;;;;;8.47;6.10;;;;;;;2.26;100.00;96281.88;5012326;28;20558;-47
2021/12/12 07:31:18;;;;;;;15.57;10.07;;;;;;;2.29;100.00;96283.91;5012275;28;20193;-48
2021/12/12 07:33:47;;;;;;;12.03;7.37;;;;;;;2.35;100.00;96298.78;5012013;28;20213;-47
2021/12/12 07:36:15;;;;;;;8.70;6.20;;;;;;;2.36;100.00;96303.03;5012377;28;20249;-52
2021/12/12 07:38:43;;;;;;;8.57;6.47;;;;;;;2.39;100.00;96307.78;5011929;28;20187;-48
2021/12/12 07:41:09;;;;;;;6.17;4.63;;;;;;;2.42;100.00;96307.13;5012873;28;20206;-51
2021/12/12 07:43:35;;;;;;;7.33;5.17;;;;;;;2.43;100.00;96308.69;5011857;28;20197;-45
2021/12/12 07:46:03;;;;;;;7.20;4.97;;;;;;;2.43;100.00;96307.88;5012179;28;20302;-60
2021/12/12 07:48:28;;;;;;;7.33;5.07;;;;;;;2.44;100.00;96302.19;5011915;28;20182;-58
2021/12/12 07:50:55;;;;;;;7.03;4.73;;;;;;;2.44;100.00;96299.47;5012254;28;20199;-65
2021/12/12 07:53:24;;;;;;;6.33;4.70;;;;;;;2.47;100.00;96306.91;5012092;28;20216;-58
2021/12/12 07:55:50;;;;;;;7.70;5.37;;;;;;;2.49;100.00;96310.09;5011684;28;20190;-58
2021/12/12 07:58:16;;;;;;;5.97;4.50;;;;;;;2.51;100.00;96310.53;5011903;28;20260;-58
2021/12/12 08:00:45;;;;;;;8.47;5.90;;;;;;;2.52;100.00;96322.09;5011811;28;20197;-55
2021/12/12 08:03:13;;;;;;;6.53;4.97;;;;;;;2.60;100.00;96323.94;5012091;28;20663;-61
2021/12/12 08:05:40;;;;;;;6.03;4.53;;;;;;;2.63;100.00;96323.28;5010906;28;20225;-59
2021/12/12 08:08:09;;;;;;;8.27;5.47;;;;;;;2.63;100.00;96326.75;5011762;28;20205;-60
2021/12/12 08:10:37;;;;;;;7.57;5.97;;;;;;;2.66;100.00;96312.63;5011674;28;20261;-62
2021/12/12 08:13:03;;;;;;;7.00;5.47;;;;;;;2.70;100.00;96312.78;5011738;28;20191;-61
2021/12/12 08:15:29;;;;;;;7.30;5.33;;;;;;;2.71;100.00;96298.97;5011740;28;20195;-61
2021/12/12 08:18:00;;;;;;;8.47;6.43;;;;;;;2.71;100.00;96309.75;5012828;28;20198;-61
2021/12/12 08:20:27;;;;;;;11.73;7.57;;;;;;;2.76;100.00;96301.44;5011848;28;20211;-59
2021/12/12 08:22:54;;;;;;;8.83;6.23;;;;;;;2.80;100.00;96306.94;5011905;28;20183;-47
2021/12/12 08:25:21;;;;;;;6.57;5.27;;;;;;;2.83;100.00;96312.47;5011863;28;20250;-55
2021/12/12 08:27:47;;;;;;;6.57;4.67;;;;;;;2.86;100.00;96317.22;5011651;28;20221;-56
2021/12/12 08:30:16;;;;;;;7.53;5.60;;;;;;;2.88;100.00;96317.66;5011782;28;20187;-55
2021/12/12 08:32:45;;;;;;;8.07;5.50;;;;;;;2.92;100.00;96315.88;5011178;28;20203;-54
2021/12/12 08:35:12;;;;;;;7.57;5.87;;;;;;;3.04;100.00;96313.25;5011449;28;20187;-55
2021/12/12 08:37:40;;;;;;;6.73;5.07;;;;;;;3.13;100.00;96305.03;5011328;28;20183;-53
2021/12/12 08:40:06;;;;;;;13.07;8.67;;;;;;;3.24;100.00;96311.59;5011396;28;20195;-65
2021/12/12 08:42:33;;;;;;;8.73;6.00;;;;;;;3.35;100.00;96305.44;5011147;28;20187;-45
2021/12/12 08:44:59;;;;;;;7.37;5.43;;;;;;;3.48;100.00;96307.06;5011403;28;20329;-46
2021/12/12 08:47:25;;;;;;;6.27;5.30;;;;;;;3.58;100.00;96305.03;5011573;28;20195;-45
2021/12/12 08:49:51;;;;;;;7.67;5.30;;;;;;;3.69;100.00;96308.88;5011216;28;20232;-47
2021/12/12 08:52:22;;;;;;;7.47;6.00;;;;;;;3.85;100.00;96315.97;5011558;28;20207;-48
2021/12/12 08:54:50;;;;;;;7.80;5.47;;;;;;;3.89;100.00;96311.47;5011491;28;20175;-47
2021/12/12 08:57:31;;;;;;;9.30;6.27;;;;;;;4.05;100.00;96320.47;5011297;28;20187;-60
2021/12/12 08:59:58;;;;;;;10.20;7.30;;;;;;;4.20;100.00;96319.00;5011256;28;20282;-62
2021/12/12 09:02:24;;;;;;;17.27;10.63;;;;;;;4.27;100.00;96322.72;5011097;28;20293;-57
2021/12/12 09:04:55;;;;;;;11.40;8.13;;;;;;;4.47;100.00;96313.66;5011273;28;20650;-61
2021/12/12 09:07:29;;;;;;;9.37;7.10;;;;;;;4.76;100.00;96312.56;5011153;28;20192;-62
2021/12/12 09:10:22;;;;;;;9.43;5.90;;;;;;;5.58;100.00;96317.16;5011329;28;20202;-61
2021/12/12 09:12:57;;;;;;;8.83;6.93;;;;;;;6.49;100.00;96314.72;5010973;28;20560;-61
2021/12/12 09:15:29;;;;;;;8.30;6.37;;;;;;;7.29;100.00;96322.22;5011136;28;20180;-45
2021/12/12 09:18:01;;;;;;;14.57;9.33;;;;;;;7.95;100.00;96331.59;5012524;28;20188;-58
2021/12/12 09:20:50;;;;;;;7.90;6.00;;;;;;;8.16;100.00;96333.88;5014796;28;20186;-53
2021/12/12 09:23:24;;;;;;;8.70;6.17;;;;;;;8.31;100.00;96322.88;5014442;28;20304;-55
2021/12/12 09:26:03;;;;;;;7.87;6.40;;;;;;;8.56;100.00;96320.53;5014762;28;20573;-51
2021/12/12 09:28:40;;;;;;;9.30;6.73;;;;;;;9.02;100.00;96325.47;5014302;28;20360;-56
2021/12/12 09:31:13;;;;;;;7.37;6.33;;;;;;;9.09;100.00;96328.28;5015763;28;20183;-56
2021/12/12 09:33:52;;;;;;;8.40;6.90;;;;;;;9.56;100.00;96323.00;5014203;28;20223;-58
2021/12/12 09:36:23;;;;;;;7.37;6.50;;;;;;;9.55;100.00;96332.31;5014280;28;20246;-59
2021/12/12 09:38:58;;;;;;;7.23;6.53;;;;;;;9.83;100.00;96335.34;5014529;28;20190;-50
2021/12/12 09:41:42;;;;;;;9.63;8.03;;;;;;;9.60;100.00;96339.38;5013968;28;20262;-54
2021/12/12 09:44:35;;;;;;;10.17;9.10;;;;;;;9.53;100.00;96334.63;5015473;28;20192;-57
2021/12/12 09:47:27;;;;;;;7.43;6.53;;;;;;;9.60;100.00;96328.47;5013929;28;20309;-52
2021/12/12 09:52:55;;;;;;;7.53;6.63;;;;;;;9.91;100.00;96322.56;5015214;28;20253;-50
2021/12/12 09:55:27;;;;;;;6.73;6.03;;;;;;;9.95;100.00;96329.59;5014375;28;20222;-54
2021/12/12 09:58:03;;;;;;;7.40;6.70;;;;;;;9.83;100.00;96316.25;5013910;28;20186;-54
2021/12/12 10:00:44;;;;;;;8.07;6.33;;;;;;;9.19;100.00;96319.44;5013511;28;20185;-53
2021/12/12 10:03:24;;;;;;;7.13;6.43;;;;;;;9.33;100.00;96313.38;5013707;28;20193;-55
2021/12/12 10:06:15;;;;;;;7.37;6.50;;;;;;;9.72;100.00;96312.63;5014214;28;20214;-49
2021/12/12 10:09:13;;;;;;;7.47;6.30;;;;;;;9.44;100.00;96309.59;5013737;28;20309;-49
2021/12/12 10:11:52;;;;;;;7.53;6.47;;;;;;;9.07;100.00;96310.72;5013116;28;20205;-58
2021/12/12 10:14:43;;;;;;;6.60;5.90;;;;;;;8.61;100.00;96310.13;5013646;28;20198;-68
2021/12/12 10:17:26;;;;;;;6.87;6.10;;;;;;;8.53;100.00;96308.44;5013611;28;20198;-73
2021/12/12 10:20:01;;;;;;;6.70;6.00;;;;;;;7.88;100.00;96303.50;5013298;28;20192;-69
2021/12/12 10:22:41;;;;;;;7.47;6.20;;;;;;;7.72;100.00;96295.44;5013410;28;20267;-67
2021/12/12 10:25:14;;;;;;;7.37;6.00;;;;;;;7.79;100.00;96303.72;5013435;28;20227;-68
2021/12/12 10:27:44;;;;;;;7.83;6.10;;;;;;;7.72;100.00;96291.97;5013351;28;20266;-71
2021/12/12 10:30:17;;;;;;;7.00;5.70;;;;;;;7.67;100.00;96293.03;5012645;28;20187;-61
2021/12/12 10:33:21;;;;;;;6.57;5.57;;;;;;;7.23;100.00;96300.00;5013398;28;20209;-54
2021/12/12 10:36:07;;;;;;;7.93;6.43;;;;;;;7.10;100.00;96301.28;5013462;28;20183;-54
2021/12/12 10:38:44;;;;;;;7.27;6.37;;;;;;;6.74;100.00;96293.59;5013209;28;20212;-52
2021/12/12 10:41:16;;;;;;;8.20;6.20;;;;;;;6.45;100.00;96288.69;5013300;28;20210;-53
2021/12/12 10:43:50;;;;;;;7.57;6.30;;;;;;;6.17;100.00;96294.25;5013024;28;20183;-51
2021/12/12 10:46:24;;;;;;;5.80;5.10;;;;;;;5.88;100.00;96291.22;5013012;28;20215;-50
2021/12/12 10:49:09;;;;;;;7.90;5.70;;;;;;;5.83;100.00;96286.06;5013030;28;20186;-47
2021/12/12 10:51:42;;;;;;;6.60;5.23;;;;;;;5.74;100.00;96282.72;5013283;28;20529;-58
2021/12/12 10:54:15;;;;;;;5.13;4.33;;;;;;;5.53;100.00;96282.19;5012989;28;20184;-60
2021/12/12 10:57:02;;;;;;;5.80;4.10;;;;;;;5.21;100.00;96284.06;5013403;28;20226;-60
2021/12/12 10:59:41;;;;;;;9.50;7.03;;;;;;;5.01;100.00;96278.88;5012865;28;20185;-59
2021/12/12 11:02:11;;;;;;;8.23;5.67;;;;;;;4.99;100.00;96273.03;5012935;28;20661;-60
2021/12/12 11:04:55;;;;;;;5.77;4.47;;;;;;;4.91;100.00;96276.66;5013989;28;20188;-59
2021/12/12 11:07:30;;;;;;;5.43;4.27;;;;;;;4.84;100.00;96276.47;5012929;28;20196;-44
2021/12/12 11:10:01;;;;;;;10.67;7.23;;;;;;;4.82;100.00;96284.16;5012742;28;20183;-56
2021/12/12 11:12:36;;;;;;;8.97;6.37;;;;;;;4.89;100.00;96278.94;5012430;28;20196;-57
2021/12/12 11:15:17;;;;;;;6.73;5.50;;;;;;;4.90;100.00;96273.19;5012605;28;20261;-53
2021/12/12 11:17:54;;;;;;;6.00;4.90;;;;;;;4.91;100.00;96272.03;5012573;28;20188;-56
2021/12/12 11:20:25;;;;;;;6.13;5.03;;;;;;;4.91;100.00;96276.66;5012858;28;20186;-58
2021/12/12 11:22:57;;;;;;;4.37;3.97;;;;;;;4.87;100.00;96271.16;5012810;28;20187;-55
2021/12/12 11:25:36;;;;;;;5.17;4.17;;;;;;;4.90;100.00;96269.69;5012509;28;20199;-52
2021/12/12 11:28:14;;;;;;;4.33;3.73;;;;;;;4.82;100.00;96262.50;5012532;28;20187;-52
2021/12/12 11:30:55;;;;;;;8.03;4.40;;;;;;;4.80;100.00;96253.94;5012340;28;20259;-55
2021/12/12 11:33:23;;;;;;;5.80;3.93;;;;;;;4.83;100.00;96254.03;5012451;28;20235;-56
2021/12/12 11:35:54;;;;;;;4.07;3.30;;;;;;;4.80;100.00;96253.94;5012076;28;20352;-58
2021/12/12 11:38:48;;;;;;;4.37;3.50;;;;;;;4.73;100.00;96253.75;5012146;28;20210;-57
2021/12/12 11:41:25;;;;;;;14.30;9.60;;;;;;;4.76;100.00;96244.94;5012232;28;20257;-59
2021/12/12 11:44:28;;;;;;;7.30;5.27;;;;;;;4.89;100.00;96246.47;5013530;28;20179;-51
2021/12/12 11:47:22;;;;;;;4.80;3.73;;;;;;;5.11;100.00;96248.59;5013472;28;20277;-66
2021/12/12 11:49:54;;;;;;;4.67;3.97;;;;;;;5.32;100.00;96251.88;5014069;28;20676;-60
2021/12/12 11:52:57;;;;;;;6.47;4.60;;;;;;;5.46;100.00;96254.94;5013904;28;20183;-61
2021/12/12 11:55:35;;;;;;;8.70;5.77;;;;;;;5.65;100.00;96255.03;5013612;28;20183;-61
2021/12/12 11:58:15;;;;;;;6.87;4.67;;;;;;;5.73;100.00;96256.75;5013814;28;20171;-64
2021/12/12 12:00:47;;;;;;;21.03;14.23;;;;;;;6.00;100.00;96261.31;5013639;28;20206;-59
2021/12/12 12:03:27;;;;;;;6.93;5.33;;;;;;;6.14;100.00;96261.63;5014084;28;20198;-57
2021/12/12 12:06:19;;;;;;;12.67;7.07;;;;;;;6.19;100.00;96259.44;5013690;28;20238;-53
2021/12/12 12:09:23;;;;;;;6.27;4.00;;;;;;;6.15;100.00;96249.63;5013461;28;20185;-53
2021/12/12 12:12:27;;;;;;;4.90;4.00;;;;;;;6.25;100.00;96252.59;5012863;28;20198;-52
2021/12/12 12:15:16;;;;;;;5.40;4.20;;;;;;;6.23;100.00;96245.97;5013174;28;20201;-55
2021/12/12 12:18:20;;;;;;;4.57;4.00;;;;;;;6.20;100.00;96252.84;5013094;28;20202;-55